Time;durP1;ratioP1;P1;durP2;ratioP2;P2;SDS_P1;SDS_P2;PMS_P1;PMS_P2;Temp;Humidity;BMP_temperature;BMP_pressure;BME280_temperature;BME280_humidity;BME280_pressure;Samples;Min_cycle;Max_cycle;Signal;HPM_P1;HPM_P2
2021/10/23 00:00:57;;;;;;;7.40;3.83;;;8.70;99.90;;;;;;5044953;28;20207;-52
2021/10/23 00:03:24;;;;;;;6.97;3.37;;;8.80;99.90;;;;;;5046235;28;20201;-52
2021/10/23 00:05:51;;;;;;;6.60;3.67;;;8.80;99.90;;;;;;5043421;28;20252;-52
2021/10/23 00:08:18;;;;;;;8.30;4.03;;;8.70;99.90;;;;;;5045164;28;20247;-50
2021/10/23 00:10:45;;;;;;;6.57;4.37;;;8.80;99.90;;;;;;5046055;28;20600;-52
2021/10/23 00:13:11;;;;;;;10.30;4.23;;;8.70;99.90;;;;;;5045559;28;20281;-52
2021/10/23 00:15:38;;;;;;;6.30;3.67;;;8.60;99.90;;;;;;5047192;28;20230;-53
2021/10/23 00:18:05;;;;;;;7.90;4.13;;;8.60;99.90;;;;;;5043969;28;20660;-50
2021/10/23 00:20:32;;;;;;;5.20;3.93;;;8.60;99.90;;;;;;5046186;28;20203;-53
2021/10/23 00:22:59;;;;;;;8.83;4.20;;;8.50;99.90;;;;;;5046614;28;20290;-51
2021/10/23 00:25:26;;;;;;;7.63;3.93;;;8.60;99.90;;;;;;5046163;28;20299;-51
2021/10/23 00:27:55;;;;;;;9.03;4.20;;;8.80;99.90;;;;;;5045955;28;20232;-52
2021/10/23 00:30:23;;;;;;;8.77;3.83;;;8.90;99.90;;;;;;5045378;28;20206;-51
2021/10/23 00:32:50;;;;;;;11.13;3.97;;;9.00;99.90;;;;;;5046997;28;20233;-51
2021/10/23 00:35:17;;;;;;;6.47;3.80;;;8.90;99.90;;;;;;5048331;28;20198;-52
2021/10/23 00:37:44;;;;;;;7.63;4.33;;;8.90;99.90;;;;;;5049166;28;20251;-52
2021/10/23 00:40:11;;;;;;;6.57;3.70;;;8.90;99.90;;;;;;5048352;28;20208;-52
2021/10/23 00:42:38;;;;;;;6.47;4.07;;;8.80;99.90;;;;;;5047193;28;20294;-51
2021/10/23 00:45:06;;;;;;;8.23;3.57;;;8.90;99.90;;;;;;5047967;28;20234;-51
2021/10/23 00:47:33;;;;;;;7.67;4.20;;;8.80;99.90;;;;;;5048033;28;20331;-51
2021/10/23 00:50:00;;;;;;;11.70;5.07;;;8.70;99.90;;;;;;5046900;28;20912;-51
2021/10/23 00:52:27;;;;;;;7.00;3.90;;;8.70;99.90;;;;;;5047907;28;21013;-50
2021/10/23 00:54:53;;;;;;;5.47;4.03;;;8.80;99.90;;;;;;5049235;28;20629;-50
2021/10/23 00:57:21;;;;;;;5.77;4.10;;;8.80;99.90;;;;;;5048690;28;20644;-51
2021/10/23 00:59:48;;;;;;;6.70;4.43;;;8.80;99.90;;;;;;5049350;28;20624;-51
2021/10/23 01:02:15;;;;;;;7.37;4.47;;;8.90;99.90;;;;;;5048410;28;20601;-52
2021/10/23 01:04:42;;;;;;;11.87;4.57;;;9.00;99.90;;;;;;5050167;28;20234;-51
2021/10/23 01:07:10;;;;;;;6.17;4.07;;;8.90;99.90;;;;;;5049801;28;20200;-51
2021/10/23 01:09:39;;;;;;;6.43;4.03;;;8.80;99.90;;;;;;5049023;28;20253;-51
2021/10/23 01:12:08;;;;;;;7.87;4.70;;;8.80;99.90;;;;;;5047261;28;20635;-52
2021/10/23 01:14:40;;;;;;;11.93;4.43;;;8.90;99.90;;;;;;5048670;28;20227;-52
2021/10/23 01:17:08;;;;;;;6.60;4.30;;;8.70;99.90;;;;;;5049406;28;20193;-49
2021/10/23 01:19:36;;;;;;;9.13;4.97;;;8.60;99.90;;;;;;5050081;28;20200;-52
2021/10/23 01:22:03;;;;;;;9.13;4.90;;;8.50;99.90;;;;;;5049248;28;20240;-52
2021/10/23 01:24:30;;;;;;;9.10;4.87;;;8.50;99.90;;;;;;5046963;28;20203;-52
2021/10/23 01:26:58;;;;;;;8.33;4.43;;;8.40;99.90;;;;;;5042439;28;20203;-52
2021/10/23 01:29:24;;;;;;;8.50;4.80;;;8.40;99.90;;;;;;5048810;28;20234;-51
2021/10/23 01:31:54;;;;;;;7.63;5.23;;;8.40;99.90;;;;;;5048448;28;20196;-51
2021/10/23 01:34:23;;;;;;;9.33;4.93;;;8.40;99.90;;;;;;5048773;28;20648;-49
2021/10/23 01:36:55;;;;;;;9.43;5.43;;;8.40;99.90;;;;;;5047884;28;20693;-51
2021/10/23 01:39:24;;;;;;;9.30;5.57;;;8.40;99.90;;;;;;5047547;28;20566;-51
2021/10/23 01:41:51;;;;;;;11.23;5.60;;;8.40;99.90;;;;;;5047325;28;20899;-51
2021/10/23 01:44:22;;;;;;;9.20;6.10;;;8.40;99.90;;;;;;5048160;28;20661;-51
2021/10/23 01:46:49;;;;;;;10.70;6.47;;;8.30;99.90;;;;;;5048415;28;20257;-52
2021/10/23 01:49:15;;;;;;;8.53;6.13;;;8.30;99.90;;;;;;5048673;28;20232;-51
2021/10/23 01:51:42;;;;;;;10.57;5.93;;;8.30;99.90;;;;;;5046045;28;20193;-51
2021/10/23 01:54:10;;;;;;;13.57;6.40;;;8.20;99.90;;;;;;5049220;28;20598;-50
2021/10/23 01:56:39;;;;;;;10.40;5.90;;;8.20;99.90;;;;;;5047475;28;20271;-52
2021/10/23 01:59:08;;;;;;;11.60;6.43;;;8.20;99.90;;;;;;5046194;28;20909;-49
2021/10/23 02:01:35;;;;;;;13.70;6.63;;;8.20;99.90;;;;;;5047880;28;20651;-52
2021/10/23 02:04:02;;;;;;;10.33;6.90;;;8.20;99.90;;;;;;5048670;28;20609;-51
2021/10/23 02:06:29;;;;;;;16.70;8.20;;;8.20;99.90;;;;;;5042597;28;20232;-51
2021/10/23 02:08:56;;;;;;;9.00;7.13;;;8.20;99.90;;;;;;5046705;28;20333;-51
2021/10/23 02:11:23;;;;;;;9.63;7.27;;;8.30;99.90;;;;;;5047532;28;20790;-51
2021/10/23 02:13:50;;;;;;;14.33;7.53;;;8.20;99.90;;;;;;5045085;28;20530;-51
2021/10/23 02:16:17;;;;;;;12.23;7.40;;;8.20;99.90;;;;;;5046787;28;20562;-51
2021/10/23 02:18:44;;;;;;;14.60;7.80;;;8.20;99.90;;;;;;5046980;28;20701;-51
2021/10/23 02:21:12;;;;;;;13.10;7.77;;;8.20;99.90;;;;;;5045921;28;20252;-51
2021/10/23 02:23:39;;;;;;;15.23;7.73;;;8.20;99.90;;;;;;5047881;28;20856;-52
2021/10/23 02:26:06;;;;;;;11.63;7.50;;;8.20;99.90;;;;;;5044913;28;20208;-49
2021/10/23 02:28:34;;;;;;;10.83;8.10;;;8.10;99.90;;;;;;5047727;28;20258;-52
2021/10/23 02:31:02;;;;;;;10.93;7.57;;;8.10;99.90;;;;;;5045461;28;20236;-51
2021/10/23 02:33:29;;;;;;;12.30;8.00;;;8.20;99.90;;;;;;5047544;28;20208;-51
2021/10/23 02:35:56;;;;;;;11.73;8.00;;;8.20;99.90;;;;;;5042991;28;20223;-51
2021/10/23 02:38:23;;;;;;;10.63;7.50;;;8.20;99.90;;;;;;5045957;28;20537;-51
2021/10/23 02:40:50;;;;;;;13.17;8.17;;;8.30;99.90;;;;;;5046592;28;20687;-51
2021/10/23 02:43:17;;;;;;;12.00;7.40;;;8.30;99.90;;;;;;5047110;28;20577;-51
2021/10/23 02:45:44;;;;;;;13.93;7.77;;;8.40;99.90;;;;;;5046819;28;20202;-51
2021/10/23 02:48:11;;;;;;;10.37;7.93;;;8.30;99.90;;;;;;5045430;28;20629;-52
2021/10/23 02:50:38;;;;;;;13.20;7.90;;;8.20;99.90;;;;;;5046573;28;20204;-51
2021/10/23 02:53:05;;;;;;;11.37;8.20;;;8.10;99.90;;;;;;5045060;28;20645;-51
2021/10/23 02:55:32;;;;;;;11.37;8.63;;;8.20;99.90;;;;;;5048093;28;20630;-51
2021/10/23 02:57:59;;;;;;;9.10;7.83;;;8.30;99.90;;;;;;5045092;28;20552;-52
2021/10/23 03:00:26;;;;;;;10.93;8.90;;;8.30;99.90;;;;;;5045993;28;20229;-52
2021/10/23 03:02:53;;;;;;;10.00;8.13;;;8.20;99.90;;;;;;5044318;28;20664;-52
2021/10/23 03:05:21;;;;;;;10.70;8.60;;;8.30;99.90;;;;;;5045527;28;20278;-50
2021/10/23 03:07:48;;;;;;;12.57;8.40;;;8.30;99.90;;;;;;5046550;28;20205;-50
2021/10/23 03:10:16;;;;;;;10.40;8.00;;;8.20;99.90;;;;;;5045640;28;20627;-50
2021/10/23 03:12:43;;;;;;;11.63;8.70;;;8.10;99.90;;;;;;5046703;28;20727;-50
2021/10/23 03:15:10;;;;;;;13.27;8.50;;;8.30;99.90;;;;;;5046087;28;20974;-50
2021/10/23 03:17:37;;;;;;;11.77;8.47;;;8.30;99.90;;;;;;5046705;28;20649;-50
2021/10/23 03:20:05;;;;;;;9.27;8.23;;;8.30;99.90;;;;;;5046067;28;20215;-51
2021/10/23 03:22:32;;;;;;;12.97;8.20;;;8.40;99.90;;;;;;5044821;28;20203;-51
2021/10/23 03:24:59;;;;;;;9.90;8.60;;;8.30;99.90;;;;;;5042739;28;20260;-52
2021/10/23 03:27:26;;;;;;;11.37;8.33;;;8.30;99.90;;;;;;5045058;28;20209;-52
2021/10/23 03:29:53;;;;;;;13.27;9.93;;;8.20;99.90;;;;;;5045881;28;20763;-52
2021/10/23 03:32:20;;;;;;;11.83;9.30;;;8.10;99.90;;;;;;5043409;28;20206;-51
2021/10/23 03:34:47;;;;;;;14.13;9.30;;;8.00;99.90;;;;;;5045543;28;20197;-51
2021/10/23 03:37:14;;;;;;;14.93;8.50;;;8.00;99.90;;;;;;5043710;28;20629;-51
2021/10/23 03:39:42;;;;;;;12.93;10.70;;;8.10;99.90;;;;;;5045592;28;20295;-51
2021/10/23 03:42:09;;;;;;;13.10;9.23;;;8.10;99.90;;;;;;5044781;28;20299;-51
2021/10/23 03:44:36;;;;;;;13.90;10.83;;;8.10;99.90;;;;;;5046128;28;20289;-51
2021/10/23 03:47:03;;;;;;;12.23;9.73;;;8.20;99.90;;;;;;5044535;28;20194;-51
2021/10/23 03:49:30;;;;;;;13.63;9.33;;;8.10;99.90;;;;;;5042424;28;20223;-52
2021/10/23 03:51:58;;;;;;;10.17;9.00;;;8.20;99.90;;;;;;5043529;28;20288;-51
2021/10/23 03:54:25;;;;;;;16.33;8.97;;;8.20;99.90;;;;;;5044534;28;20268;-52
2021/10/23 03:56:52;;;;;;;19.63;10.97;;;8.30;99.90;;;;;;5047131;28;20248;-52
2021/10/23 03:59:19;;;;;;;14.00;9.67;;;8.40;99.90;;;;;;5044512;28;20242;-52
2021/10/23 04:01:46;;;;;;;13.40;8.57;;;8.40;99.90;;;;;;5042899;28;20202;-51
2021/10/23 04:04:13;;;;;;;10.27;9.17;;;8.40;99.90;;;;;;5045560;28;20203;-51
2021/10/23 04:06:40;;;;;;;15.40;9.57;;;8.40;99.90;;;;;;5042090;28;20252;-51
2021/10/23 04:09:07;;;;;;;11.27;8.90;;;8.40;99.90;;;;;;5045721;28;20213;-51
2021/10/23 04:11:35;;;;;;;13.97;9.50;;;8.40;99.90;;;;;;5049599;28;20505;-51
2021/10/23 04:14:03;;;;;;;10.60;8.80;;;8.40;99.90;;;;;;5049125;28;20216;-51
2021/10/23 04:16:30;;;;;;;12.80;8.90;;;8.30;99.90;;;;;;5047711;28;20192;-51
2021/10/23 04:18:57;;;;;;;15.17;10.30;;;8.30;99.90;;;;;;5048986;28;20207;-51
2021/10/23 04:21:24;;;;;;;12.20;8.80;;;8.30;99.90;;;;;;5047489;28;20205;-51
2021/10/23 04:23:51;;;;;;;11.60;9.47;;;8.40;99.90;;;;;;5050679;28;20206;-51
2021/10/23 04:26:18;;;;;;;12.80;9.07;;;8.20;99.90;;;;;;5045906;28;20196;-51
2021/10/23 04:28:45;;;;;;;14.07;9.53;;;8.30;99.90;;;;;;5047152;28;20212;-52
2021/10/23 04:31:12;;;;;;;13.47;10.00;;;8.20;99.90;;;;;;5048588;28;20196;-51
2021/10/23 04:33:39;;;;;;;12.83;9.47;;;8.20;99.90;;;;;;5047790;28;20231;-51
2021/10/23 04:36:06;;;;;;;14.67;9.53;;;8.30;99.90;;;;;;5046000;28;20205;-51
2021/10/23 04:38:33;;;;;;;12.87;9.03;;;8.30;99.90;;;;;;5046250;28;20205;-51
2021/10/23 04:41:01;;;;;;;13.23;9.20;;;8.30;99.90;;;;;;5048487;28;20222;-52
2021/10/23 04:43:28;;;;;;;11.17;9.30;;;8.10;99.90;;;;;;5050067;28;20248;-51
2021/10/23 04:45:54;;;;;;;15.80;10.60;;;8.20;99.90;;;;;;5048131;28;20202;-51
2021/10/23 04:48:21;;;;;;;10.60;9.03;;;8.20;99.90;;;;;;5046500;28;20207;-51
2021/10/23 04:50:48;;;;;;;11.83;8.97;;;8.10;99.90;;;;;;5047821;28;20290;-51
2021/10/23 04:53:15;;;;;;;10.90;8.87;;;8.10;99.90;;;;;;5047961;28;20255;-51
2021/10/23 04:55:42;;;;;;;11.57;8.73;;;8.10;99.90;;;;;;5048787;28;20199;-51
2021/10/23 04:58:09;;;;;;;11.07;8.87;;;8.10;99.90;;;;;;5047607;28;20227;-52
2021/10/23 05:00:36;;;;;;;11.90;8.33;;;8.00;99.90;;;;;;5048042;28;20196;-51
2021/10/23 05:03:03;;;;;;;15.20;9.00;;;8.00;99.90;;;;;;5047291;28;20621;-51
2021/10/23 05:05:30;;;;;;;11.63;9.07;;;7.90;99.90;;;;;;5048356;28;20241;-51
2021/10/23 05:07:56;;;;;;;12.10;9.10;;;8.00;99.90;;;;;;5047689;28;20729;-51
2021/10/23 05:10:23;;;;;;;11.17;8.67;;;8.00;99.90;;;;;;5046366;28;20297;-51
2021/10/23 05:12:51;;;;;;;13.00;10.10;;;7.90;99.90;;;;;;5047817;28;20294;-51
2021/10/23 05:15:17;;;;;;;11.87;9.57;;;8.00;99.90;;;;;;5047301;28;20287;-51
2021/10/23 05:17:44;;;;;;;13.30;10.37;;;7.90;99.90;;;;;;5048576;28;20190;-51
2021/10/23 05:20:12;;;;;;;13.70;10.47;;;7.80;99.90;;;;;;5046117;28;20205;-52
2021/10/23 05:22:40;;;;;;;11.80;9.43;;;7.90;99.90;;;;;;5047988;28;20210;-51
2021/10/23 05:25:07;;;;;;;12.97;9.50;;;8.10;99.90;;;;;;5047036;28;20246;-51
2021/10/23 05:27:34;;;;;;;12.40;9.33;;;8.10;99.90;;;;;;5048504;28;20208;-51
2021/10/23 05:30:01;;;;;;;13.43;9.70;;;8.20;99.90;;;;;;5047300;28;20303;-52
2021/10/23 05:32:28;;;;;;;13.10;9.67;;;8.10;99.90;;;;;;5047879;28;20575;-52
2021/10/23 05:34:55;;;;;;;14.07;9.53;;;8.10;99.90;;;;;;5046950;28;20256;-52
2021/10/23 05:37:22;;;;;;;13.30;9.47;;;8.20;99.90;;;;;;5046934;28;20253;-52
2021/10/23 05:39:48;;;;;;;11.47;9.57;;;8.20;99.90;;;;;;5048322;28;20200;-52
2021/10/23 05:42:15;;;;;;;11.43;9.20;;;8.20;99.90;;;;;;5045948;28;20290;-51
2021/10/23 05:44:43;;;;;;;11.13;8.77;;;8.20;99.90;;;;;;5048297;28;20663;-51
2021/10/23 05:47:10;;;;;;;13.17;9.53;;;8.20;99.90;;;;;;5047727;28;20701;-51
2021/10/23 05:49:37;;;;;;;16.60;9.60;;;8.10;99.90;;;;;;5047352;28;20214;-52
2021/10/23 05:52:04;;;;;;;13.10;8.90;;;8.10;99.90;;;;;;5044077;28;20197;-51
2021/10/23 05:54:36;;;;;;;11.10;9.37;;;8.10;99.90;;;;;;5047958;28;20280;-51
2021/10/23 05:57:08;;;;;;;10.13;9.07;;;8.10;99.90;;;;;;5043674;28;20255;-52
2021/10/23 05:59:39;;;;;;;9.70;8.60;;;8.10;99.90;;;;;;5042639;28;20321;-52
2021/10/23 06:02:29;;;;;;;12.60;8.50;;;8.00;99.90;;;;;;5037442;28;20202;-51
2021/10/23 06:04:59;;;;;;;10.43;8.37;;;8.10;99.90;;;;;;5047097;28;20516;-52
2021/10/23 06:07:29;;;;;;;10.03;8.47;;;8.10;99.90;;;;;;5046367;28;20209;-52
2021/10/23 06:09:57;;;;;;;12.57;8.77;;;8.10;99.90;;;;;;5046475;28;20221;-52
2021/10/23 06:12:25;;;;;;;10.27;8.73;;;8.10;99.90;;;;;;5048507;28;20235;-51
2021/10/23 06:14:53;;;;;;;11.00;9.13;;;8.10;99.90;;;;;;5048351;28;20254;-51
2021/10/23 06:17:20;;;;;;;11.20;8.73;;;8.10;99.90;;;;;;5048059;28;20203;-51
2021/10/23 06:19:47;;;;;;;10.53;8.63;;;8.10;99.90;;;;;;5046277;28;20313;-51
2021/10/23 06:22:14;;;;;;;10.20;9.10;;;8.20;99.90;;;;;;5046449;28;20572;-51
2021/10/23 06:24:40;;;;;;;10.77;9.37;;;8.20;99.90;;;;;;5046824;28;20212;-51
2021/10/23 06:27:08;;;;;;;13.43;9.13;;;8.20;99.90;;;;;;5045144;28;20673;-52
2021/10/23 06:29:35;;;;;;;10.67;8.17;;;8.10;99.90;;;;;;5045533;28;20208;-52
2021/10/23 06:32:02;;;;;;;12.10;8.87;;;8.20;99.90;;;;;;5046768;28;20193;-52
2021/10/23 06:34:29;;;;;;;12.53;9.20;;;8.30;99.90;;;;;;5047481;28;20329;-52
2021/10/23 06:36:56;;;;;;;13.07;8.80;;;8.20;99.90;;;;;;5046977;28;20253;-51
2021/10/23 06:39:23;;;;;;;11.30;9.13;;;8.20;99.90;;;;;;5044281;28;20617;-52
2021/10/23 06:41:50;;;;;;;11.37;9.17;;;8.20;99.90;;;;;;5044006;28;20192;-52
2021/10/23 06:44:17;;;;;;;12.87;8.87;;;8.20;99.90;;;;;;5045976;28;20235;-51
2021/10/23 06:46:44;;;;;;;18.37;10.60;;;8.20;99.90;;;;;;5045568;28;20285;-51
2021/10/23 06:49:11;;;;;;;16.27;9.47;;;8.20;99.90;;;;;;5046086;28;22288;-51
2021/10/23 06:51:38;;;;;;;13.97;9.30;;;8.20;99.90;;;;;;5046406;28;20238;-51
2021/10/23 06:54:05;;;;;;;13.10;9.37;;;8.30;99.90;;;;;;5047451;28;20204;-52
2021/10/23 06:56:32;;;;;;;15.30;9.77;;;8.30;99.90;;;;;;5046507;28;20196;-51
2021/10/23 06:58:59;;;;;;;9.63;8.63;;;8.10;99.90;;;;;;5046795;28;20673;-51
2021/10/23 07:01:26;;;;;;;11.87;9.30;;;8.10;99.90;;;;;;5045907;28;20285;-52
2021/10/23 07:03:54;;;;;;;13.80;9.67;;;8.20;99.90;;;;;;5044085;28;20230;-52
2021/10/23 07:06:21;;;;;;;14.97;10.03;;;8.20;99.90;;;;;;5041584;28;20232;-51
2021/10/23 07:08:48;;;;;;;22.13;9.77;;;8.30;99.90;;;;;;5044113;28;20229;-51
2021/10/23 07:11:20;;;;;;;18.33;10.53;;;8.00;99.90;;;;;;5041823;28;20686;-51
2021/10/23 07:13:48;;;;;;;18.10;10.87;;;7.80;99.90;;;;;;5042442;28;20195;-51
2021/10/23 07:16:16;;;;;;;20.20;10.77;;;7.80;99.90;;;;;;5043513;28;20203;-51
2021/10/23 07:18:43;;;;;;;23.80;11.20;;;7.80;99.90;;;;;;5045230;28;20202;-51
2021/10/23 07:21:10;;;;;;;24.77;10.97;;;7.70;99.90;;;;;;5041091;28;20205;-51
2021/10/23 07:23:37;;;;;;;15.23;10.73;;;7.60;99.90;;;;;;5041522;28;20251;-51
2021/10/23 07:26:03;;;;;;;21.07;11.57;;;7.70;99.90;;;;;;5042365;28;20213;-51
2021/10/23 07:28:30;;;;;;;17.43;12.63;;;7.80;99.90;;;;;;5041522;28;20246;-50
2021/10/23 07:30:57;;;;;;;18.50;12.73;;;7.80;99.90;;;;;;5039415;28;20212;-52
2021/10/23 07:33:24;;;;;;;21.70;12.27;;;7.90;99.90;;;;;;5045039;28;20309;-52
2021/10/23 07:35:52;;;;;;;18.87;13.37;;;7.90;99.90;;;;;;5042420;28;20722;-51
2021/10/23 07:38:18;;;;;;;15.80;12.63;;;8.10;99.90;;;;;;5041867;28;20210;-51
2021/10/23 07:40:45;;;;;;;20.37;13.10;;;8.20;99.90;;;;;;5042971;28;20196;-51
2021/10/23 07:43:13;;;;;;;20.43;13.53;;;8.30;99.90;;;;;;5042828;28;20203;-51
2021/10/23 07:45:40;;;;;;;20.03;14.20;;;8.30;99.90;;;;;;5041609;28;20213;-51
2021/10/23 07:48:07;;;;;;;22.13;13.90;;;8.50;99.90;;;;;;5044957;28;20570;-50
2021/10/23 07:50:35;;;;;;;18.03;13.17;;;8.60;99.90;;;;;;5046845;28;20239;-51
2021/10/23 07:53:02;;;;;;;16.80;13.40;;;8.60;99.90;;;;;;5045978;28;20279;-51
2021/10/23 07:55:32;;;;;;;22.47;14.90;;;8.50;99.90;;;;;;5043469;28;20198;-52
2021/10/23 07:58:00;;;;;;;19.10;13.60;;;8.60;99.90;;;;;;5045993;28;20201;-52
2021/10/23 08:00:28;;;;;;;21.60;14.03;;;8.70;99.90;;;;;;5046531;28;20555;-51
2021/10/23 08:03:00;;;;;;;22.53;15.47;;;8.90;99.90;;;;;;5044764;28;20264;-52
2021/10/23 08:05:30;;;;;;;23.63;15.77;;;9.00;99.90;;;;;;5046164;28;20258;-52
2021/10/23 08:07:57;;;;;;;22.90;15.77;;;9.00;99.90;;;;;;5048455;28;20196;-52
2021/10/23 08:10:25;;;;;;;26.27;16.23;;;9.00;99.90;;;;;;5046529;28;20748;-52
2021/10/23 08:12:56;;;;;;;23.63;16.07;;;9.10;99.90;;;;;;5044685;28;20204;-52
2021/10/23 08:15:23;;;;;;;25.00;16.47;;;9.10;99.90;;;;;;5047059;28;20223;-51
2021/10/23 08:17:51;;;;;;;23.60;15.70;;;9.20;99.90;;;;;;5044781;28;20604;-51
2021/10/23 08:20:19;;;;;;;25.10;16.43;;;9.20;99.90;;;;;;5044562;28;20321;-50
2021/10/23 08:22:46;;;;;;;25.70;16.17;;;9.30;99.90;;;;;;5046707;28;20208;-51
2021/10/23 08:25:13;;;;;;;26.27;16.27;;;9.20;99.90;;;;;;5040955;28;20206;-52
2021/10/23 08:27:44;;;;;;;27.90;17.30;;;9.20;99.90;;;;;;5038316;28;20628;-49
2021/10/23 08:30:14;;;;;;;29.97;17.33;;;9.30;99.90;;;;;;5043922;28;20223;-52
2021/10/23 08:32:43;;;;;;;26.70;17.43;;;9.30;99.90;;;;;;5039342;28;20203;-50
2021/10/23 08:35:10;;;;;;;26.43;17.13;;;9.20;99.90;;;;;;5043784;28;20200;-52
2021/10/23 08:37:37;;;;;;;28.23;18.00;;;9.30;99.90;;;;;;5044708;28;20226;-52
2021/10/23 08:40:07;;;;;;;29.17;17.50;;;9.40;99.90;;;;;;5040210;28;20207;-52
2021/10/23 08:42:34;;;;;;;26.90;17.37;;;9.50;99.90;;;;;;5034460;28;20226;-52
2021/10/23 08:45:07;;;;;;;24.90;17.03;;;9.40;99.90;;;;;;5035746;28;20311;-52
2021/10/23 08:47:39;;;;;;;32.67;17.87;;;9.60;99.90;;;;;;5031598;28;20221;-52
2021/10/23 08:50:10;;;;;;;25.90;17.60;;;9.70;99.90;;;;;;5029491;28;20564;-52
2021/10/23 08:52:37;;;;;;;28.77;17.37;;;9.80;99.90;;;;;;5034113;28;20322;-50
2021/10/23 08:55:06;;;;;;;24.90;16.10;;;10.00;99.90;;;;;;5036293;28;20608;-52
2021/10/23 08:57:33;;;;;;;24.17;16.07;;;10.00;99.90;;;;;;5037200;28;20197;-50
2021/10/23 09:00:00;;;;;;;21.77;14.97;;;9.90;99.90;;;;;;5037823;28;20323;-52
2021/10/23 09:02:27;;;;;;;23.63;15.70;;;9.90;99.90;;;;;;5039038;28;20227;-50
2021/10/23 09:04:58;;;;;;;25.83;16.70;;;9.90;99.90;;;;;;5038035;28;20638;-52
2021/10/23 09:07:31;;;;;;;25.23;16.00;;;10.00;99.90;;;;;;5038528;28;20873;-50
2021/10/23 09:10:04;;;;;;;23.60;15.90;;;10.10;99.90;;;;;;5039837;28;20343;-51
2021/10/23 09:12:37;;;;;;;27.23;15.60;;;10.20;99.90;;;;;;5036412;28;20206;-51
2021/10/23 09:15:13;;;;;;;25.07;15.20;;;10.10;99.90;;;;;;5038202;28;20200;-51
2021/10/23 09:17:40;;;;;;;24.77;15.10;;;10.10;99.90;;;;;;5035897;28;20199;-51
2021/10/23 09:20:12;;;;;;;23.27;16.57;;;10.10;99.90;;;;;;5036246;28;20629;-51
2021/10/23 09:22:48;;;;;;;22.77;15.57;;;10.20;99.90;;;;;;5033358;28;20239;-51
2021/10/23 09:25:34;;;;;;;24.23;15.80;;;10.20;99.90;;;;;;5035255;28;20937;-52
2021/10/23 09:28:08;;;;;;;29.03;16.80;;;10.20;99.90;;;;;;5037815;28;20204;-52
2021/10/23 09:30:46;;;;;;;23.40;15.73;;;10.20;99.90;;;;;;5037054;28;20703;-52
2021/10/23 09:33:25;;;;;;;22.27;15.17;;;10.10;99.90;;;;;;5036630;28;20573;-52
2021/10/23 09:35:55;;;;;;;25.07;16.90;;;10.20;99.90;;;;;;5036770;28;21106;-52
2021/10/23 09:38:25;;;;;;;23.10;15.47;;;10.10;99.90;;;;;;5037029;28;20217;-52
2021/10/23 09:40:54;;;;;;;23.23;16.60;;;10.10;99.90;;;;;;5036921;28;20212;-52
2021/10/23 09:43:29;;;;;;;25.07;16.07;;;10.40;99.90;;;;;;5036046;28;20200;-52
2021/10/23 09:45:56;;;;;;;21.03;15.37;;;10.60;99.90;;;;;;5036999;28;20640;-49
2021/10/23 09:48:42;;;;;;;21.83;16.07;;;10.70;99.90;;;;;;5037534;28;20217;-52
2021/10/23 09:51:21;;;;;;;25.17;15.43;;;10.70;99.90;;;;;;5036201;28;20231;-51
2021/10/23 09:54:06;;;;;;;26.47;15.80;;;10.70;99.90;;;;;;5038492;28;20630;-51
2021/10/23 09:56:37;;;;;;;20.07;14.60;;;10.80;99.90;;;;;;5036344;28;20504;-52
2021/10/23 09:59:08;;;;;;;22.53;14.93;;;10.80;99.90;;;;;;5037336;28;20200;-52
2021/10/23 10:01:40;;;;;;;22.43;14.27;;;10.80;99.90;;;;;;5035709;28;20218;-51
2021/10/23 10:04:09;;;;;;;25.80;16.30;;;10.90;99.90;;;;;;5037342;28;20209;-51
2021/10/23 10:06:46;;;;;;;23.37;16.30;;;11.00;99.90;;;;;;5035258;28;20314;-51
2021/10/23 10:09:24;;;;;;;22.20;13.80;;;11.10;99.90;;;;;;5036207;28;20262;-52
2021/10/23 10:11:53;;;;;;;21.83;14.53;;;11.20;99.90;;;;;;5039336;28;20687;-52
2021/10/23 10:14:24;;;;;;;22.17;13.73;;;11.20;99.90;;;;;;5044470;28;20675;-52
2021/10/23 10:16:55;;;;;;;18.47;13.20;;;11.20;99.90;;;;;;5045573;28;20529;-51
2021/10/23 10:19:22;;;;;;;21.77;13.50;;;11.20;99.90;;;;;;5050899;28;20204;-52
2021/10/23 10:21:51;;;;;;;18.83;12.73;;;11.40;99.90;;;;;;5045301;28;20649;-52
2021/10/23 10:24:20;;;;;;;19.00;13.43;;;11.60;99.90;;;;;;5045462;28;20622;-52
2021/10/23 10:27:11;;;;;;;23.37;13.07;;;11.60;99.90;;;;;;5046026;28;20236;-49
2021/10/23 10:29:53;;;;;;;21.03;12.53;;;11.60;99.90;;;;;;5038117;28;20342;-50
2021/10/23 10:32:29;;;;;;;23.03;14.47;;;11.40;99.90;;;;;;5039295;28;20270;-50
2021/10/23 10:38:05;;;;;;;19.50;12.73;;;11.30;99.90;;;;;;5044803;28;20225;-51
2021/10/23 10:43:08;;;;;;;23.13;13.40;;;11.40;99.90;;;;;;5049394;28;20209;-51
2021/10/23 10:45:41;;;;;;;23.57;12.97;;;11.40;99.90;;;;;;5048350;28;20200;-50
2021/10/23 10:48:30;;;;;;;17.67;12.27;;;11.40;99.90;;;;;;5047155;28;20250;-51
2021/10/23 10:51:04;;;;;;;17.23;11.30;;;11.40;99.90;;;;;;5038297;28;20691;-51
2021/10/23 10:53:32;;;;;;;19.10;12.87;;;11.40;99.90;;;;;;5045483;28;20665;-50
2021/10/23 10:55:58;;;;;;;18.60;11.37;;;11.50;99.90;;;;;;5046029;28;20509;-50
2021/10/23 10:58:42;;;;;;;16.43;10.83;;;11.70;99.90;;;;;;5047960;28;20238;-52
2021/10/23 11:01:10;;;;;;;15.90;10.63;;;11.60;99.90;;;;;;5047798;28;21485;-52
2021/10/23 11:03:44;;;;;;;17.80;9.70;;;11.70;99.90;;;;;;5050315;28;20239;-52
2021/10/23 11:06:35;;;;;;;14.03;10.00;;;11.60;99.90;;;;;;5045309;28;20235;-51
2021/10/23 11:09:10;;;;;;;14.97;10.50;;;11.70;99.90;;;;;;5041776;28;20240;-49
2021/10/23 11:11:52;;;;;;;16.00;10.83;;;11.80;99.90;;;;;;5039682;28;20303;-52
2021/10/23 11:14:25;;;;;;;13.70;9.97;;;11.70;99.90;;;;;;5047175;28;20338;-52
2021/10/23 11:16:55;;;;;;;14.17;10.73;;;11.70;99.90;;;;;;5040960;28;20222;-51
2021/10/23 11:19:34;;;;;;;15.50;11.20;;;11.90;99.90;;;;;;5048865;28;20291;-52
2021/10/23 11:22:10;;;;;;;16.47;11.00;;;11.90;99.90;;;;;;5047358;28;20201;-52
2021/10/23 11:24:39;;;;;;;17.70;11.33;;;11.90;99.90;;;;;;5046146;28;20222;-51
2021/10/23 11:27:06;;;;;;;15.43;11.10;;;11.80;99.90;;;;;;5041203;28;20659;-50
2021/10/23 11:29:33;;;;;;;15.93;11.83;;;11.70;99.90;;;;;;5048223;28;20232;-50
2021/10/23 11:32:01;;;;;;;19.17;10.83;;;11.80;99.90;;;;;;5045724;28;20213;-50
2021/10/23 11:34:29;;;;;;;15.60;10.60;;;11.80;99.90;;;;;;5050097;28;20211;-50
2021/10/23 11:37:00;;;;;;;19.17;10.97;;;12.00;99.90;;;;;;5047668;28;20221;-50
2021/10/23 11:39:27;;;;;;;15.47;10.57;;;11.80;99.90;;;;;;5042739;28;20215;-50
2021/10/23 11:42:34;;;;;;;12.73;9.87;;;12.00;99.90;;;;;;5054175;28;20212;-50
2021/10/23 11:45:12;;;;;;;16.73;11.00;;;12.30;99.90;;;;;;5041573;28;20212;-51
2021/10/23 11:47:52;;;;;;;13.77;9.70;;;12.10;99.90;;;;;;5047911;28;20620;-51
2021/10/23 11:50:25;;;;;;;14.43;9.73;;;12.10;99.90;;;;;;5046983;28;20211;-51
2021/10/23 11:53:00;;;;;;;13.07;8.90;;;12.30;99.90;;;;;;5049440;28;20265;-51
2021/10/23 11:55:33;;;;;;;11.60;8.47;;;12.30;99.90;;;;;;5046183;28;20246;-51
2021/10/23 11:58:02;;;;;;;15.10;8.57;;;12.30;99.90;;;;;;5047192;28;20638;-51
2021/10/23 12:00:30;;;;;;;9.40;7.30;;;12.40;99.90;;;;;;5047775;28;20670;-51
2021/10/23 12:03:02;;;;;;;10.37;7.67;;;12.40;99.90;;;;;;5047693;28;20228;-51
2021/10/23 12:05:48;;;;;;;11.83;7.43;;;12.40;99.90;;;;;;5047189;28;20320;-51
2021/10/23 12:08:27;;;;;;;11.53;7.43;;;12.30;99.90;;;;;;5050637;28;20253;-52
2021/10/23 12:11:04;;;;;;;11.27;7.70;;;12.40;99.90;;;;;;5053442;28;20207;-50
2021/10/23 12:13:54;;;;;;;12.67;8.07;;;12.60;99.90;;;;;;5054757;28;20202;-52
2021/10/23 12:16:29;;;;;;;13.60;7.27;;;12.70;99.90;;;;;;5051876;28;20199;-50
2021/10/23 12:19:16;;;;;;;12.23;7.13;;;12.80;99.90;;;;;;5045247;28;20201;-51
2021/10/23 12:21:50;;;;;;;8.67;5.93;;;12.70;99.90;;;;;;5044698;28;20200;-51
2021/10/23 12:24:29;;;;;;;13.53;7.20;;;12.70;99.90;;;;;;5048979;28;20213;-51
2021/10/23 12:27:00;;;;;;;10.87;6.77;;;12.80;99.90;;;;;;5045339;28;20212;-51
2021/10/23 12:29:45;;;;;;;10.50;7.03;;;12.80;99.90;;;;;;5044337;28;20351;-51
2021/10/23 12:32:16;;;;;;;11.20;7.67;;;13.10;99.90;;;;;;5054120;28;20218;-52
2021/10/23 12:34:51;;;;;;;11.73;6.30;;;13.20;99.90;;;;;;5054806;28;20611;-50
2021/10/23 12:37:27;;;;;;;11.10;6.43;;;13.20;99.90;;;;;;5053133;28;20310;-52
2021/10/23 12:40:22;;;;;;;11.30;6.03;;;13.30;99.90;;;;;;5047093;28;20203;-52
2021/10/23 12:42:53;;;;;;;11.00;7.17;;;13.70;99.90;;;;;;5031364;28;20218;-52
2021/10/23 12:45:26;;;;;;;8.07;5.80;;;14.20;99.90;;;;;;5053347;28;20271;-51
2021/10/23 12:47:55;;;;;;;9.30;5.97;;;14.00;99.90;;;;;;5050998;28;20246;-51
2021/10/23 12:50:22;;;;;;;9.77;5.87;;;14.00;99.90;;;;;;5044141;28;20301;-52
2021/10/23 12:52:53;;;;;;;6.37;4.87;;;13.90;1.00;;;;;;5049478;28;20557;-52
2021/10/23 12:55:22;;;;;;;7.90;5.10;;;13.80;1.00;;;;;;5045855;28;20609;-52
2021/10/23 12:57:49;;;;;;;8.67;5.47;;;14.00;64.50;;;;;;5040002;28;20616;-52
2021/10/23 13:00:16;;;;;;;9.20;5.37;;;14.10;58.10;;;;;;5047039;28;20198;-52